Time;durP1;ratioP1;P1;durP2;ratioP2;P2;SDS_P1;SDS_P2;PMS_P1;PMS_P2;Temp;Humidity;BMP_temperature;BMP_pressure;BME280_temperature;BME280_humidity;BME280_pressure;Samples;Min_cycle;Max_cycle;Signal;HPM_P1;HPM_P2
2023/05/04 00:02:00;;;;;;;10.32;4.28;;;8.30;88.80;;;;;;5035881;28;20092;-69
2023/05/04 00:04:26;;;;;;;9.43;3.85;;;8.20;89.10;;;;;;5035880;28;20095;-69
2023/05/04 00:06:51;;;;;;;8.10;3.78;;;8.20;89.40;;;;;;5035756;28;20041;-69
2023/05/04 00:09:17;;;;;;;9.70;4.25;;;8.20;89.60;;;;;;5035866;28;20045;-69
2023/05/04 00:11:42;;;;;;;9.50;3.90;;;8.10;89.70;;;;;;5035702;28;20051;-69
2023/05/04 00:14:08;;;;;;;9.75;4.32;;;8.10;89.80;;;;;;5019491;28;20045;-69
2023/05/04 00:16:35;;;;;;;9.77;4.53;;;8.10;90.00;;;;;;5035668;28;20502;-69
2023/05/04 00:19:00;;;;;;;8.27;4.32;;;8.00;90.20;;;;;;5035443;28;20048;-69
2023/05/04 00:21:26;;;;;;;9.80;4.07;;;8.10;90.30;;;;;;5035528;28;20044;-69
2023/05/04 00:23:52;;;;;;;11.40;4.43;;;8.10;90.40;;;;;;5035459;28;20043;-69
2023/05/04 00:26:17;;;;;;;7.82;3.97;;;8.00;90.50;;;;;;5035446;28;20049;-69
2023/05/04 00:28:43;;;;;;;10.13;4.50;;;8.00;90.50;;;;;;5035585;28;20095;-69
2023/05/04 00:31:08;;;;;;;10.63;4.35;;;8.00;90.70;;;;;;5035398;28;20078;-69
2023/05/04 00:33:34;;;;;;;7.90;4.25;;;8.00;90.80;;;;;;5035581;28;20037;-69
2023/05/04 00:36:02;;;;;;;7.32;4.07;;;7.90;90.80;;;;;;5035364;28;20452;-69
2023/05/04 00:38:28;;;;;;;7.47;4.63;;;7.90;91.30;;;;;;5035063;28;20049;-69
2023/05/04 00:40:53;;;;;;;7.05;4.15;;;7.90;91.20;;;;;;5035286;28;20043;-69
2023/05/04 00:43:19;;;;;;;9.70;4.43;;;7.80;91.20;;;;;;5053311;28;20048;-69
2023/05/04 00:45:45;;;;;;;9.35;5.00;;;7.90;91.30;;;;;;5035156;28;20033;-69
2023/05/04 00:48:11;;;;;;;10.98;4.50;;;7.80;91.40;;;;;;5034531;28;20044;-69
2023/05/04 00:50:36;;;;;;;10.00;4.68;;;7.80;91.60;;;;;;5034417;28;20528;-69
2023/05/04 00:53:08;;;;;;;9.52;4.53;;;7.80;91.80;;;;;;5034308;28;20041;-69
2023/05/04 00:55:39;;;;;;;8.52;4.70;;;7.80;91.90;;;;;;5034338;28;20441;-69
2023/05/04 00:58:06;;;;;;;10.27;4.50;;;7.80;92.00;;;;;;5034469;28;20411;-69
2023/05/04 01:00:31;;;;;;;10.73;4.97;;;7.80;92.20;;;;;;5034527;28;20048;-69
2023/05/04 01:02:57;;;;;;;7.80;4.32;;;7.80;92.20;;;;;;5034197;28;20044;-69
2023/05/04 01:05:26;;;;;;;9.57;4.75;;;7.80;92.30;;;;;;5034230;28;20039;-68
2023/05/04 01:08:11;;;;;;;6.22;4.55;;;7.80;92.50;;;;;;5034136;28;20068;-68
2023/05/04 01:10:46;;;;;;;8.77;4.22;;;7.80;92.50;;;;;;5037478;28;20048;-68
2023/05/04 01:13:14;;;;;;;8.88;4.88;;;7.80;92.60;;;;;;5037712;28;20129;-69
2023/05/04 01:15:41;;;;;;;10.02;4.90;;;7.70;92.70;;;;;;5037646;28;20041;-69
2023/05/04 01:18:06;;;;;;;7.57;4.18;;;7.70;92.70;;;;;;5037670;28;20047;-69
2023/05/04 01:20:32;;;;;;;8.00;4.60;;;7.70;92.90;;;;;;5037574;28;20037;-69
2023/05/04 01:22:58;;;;;;;10.32;4.63;;;7.70;93.00;;;;;;5037508;28;20041;-69
2023/05/04 01:26:22;;;;;;;11.25;4.55;;;7.60;93.20;;;;;;5037458;28;20575;-69
2023/05/04 01:28:50;;;;;;;;;;;7.60;93.70;;;;;;5013142;28;20144;-69
2023/05/04 01:31:21;;;;;;;11.32;4.53;;;7.50;93.70;;;;;;5037634;28;19940;-69
2023/05/04 01:33:50;;;;;;;10.95;4.68;;;7.50;93.60;;;;;;5037597;28;20099;-69
2023/05/04 01:36:18;;;;;;;8.63;4.45;;;7.50;93.60;;;;;;5037579;28;20045;-69
2023/05/04 01:38:47;;;;;;;7.82;4.72;;;7.50;93.70;;;;;;5037258;28;20571;-69
2023/05/04 01:41:12;;;;;;;11.25;5.15;;;7.50;93.70;;;;;;5020913;28;20486;-69
2023/05/04 01:43:38;;;;;;;11.90;5.05;;;7.50;93.80;;;;;;5037438;28;20123;-69
2023/05/04 01:46:04;;;;;;;9.48;5.43;;;7.50;94.00;;;;;;4999608;28;1072080;-69
2023/05/04 01:48:30;;;;;;;13.07;5.07;;;7.50;94.20;;;;;;5038173;28;20123;-68
2023/05/04 01:50:55;;;;;;;8.60;4.65;;;7.50;94.20;;;;;;5038271;28;20053;-68
2023/05/04 01:53:21;;;;;;;9.75;5.28;;;7.50;94.30;;;;;;5038314;28;20040;-68
2023/05/04 01:55:46;;;;;;;11.88;5.30;;;7.50;94.40;;;;;;5038502;28;20044;-68
2023/05/04 01:58:12;;;;;;;10.07;4.70;;;7.50;94.60;;;;;;5038273;28;20400;-68
2023/05/04 02:00:38;;;;;;;9.30;5.18;;;7.40;94.80;;;;;;5038155;28;20504;-68
2023/05/04 02:03:03;;;;;;;11.27;5.20;;;7.40;94.90;;;;;;5038115;28;20071;-68
2023/05/04 02:05:29;;;;;;;9.88;4.63;;;7.40;94.90;;;;;;5038313;28;20092;-68
2023/05/04 02:07:54;;;;;;;10.35;4.70;;;7.40;95.00;;;;;;5037967;28;20405;-69
2023/05/04 02:10:20;;;;;;;8.50;4.80;;;7.40;95.00;;;;;;5037997;28;20072;-69
2023/05/04 02:12:46;;;;;;;7.75;5.10;;;7.40;95.10;;;;;;5037795;28;20113;-69
2023/05/04 02:15:11;;;;;;;8.73;4.82;;;7.40;95.20;;;;;;5037869;28;20045;-69
2023/05/04 02:17:37;;;;;;;9.38;4.70;;;7.40;95.10;;;;;;5037642;28;20044;-69
2023/05/04 02:20:03;;;;;;;10.68;5.38;;;7.40;95.10;;;;;;5037220;28;20044;-69
2023/05/04 02:22:29;;;;;;;8.88;5.43;;;7.30;95.20;;;;;;5037732;28;20057;-69
2023/05/04 02:24:55;;;;;;;11.10;5.30;;;7.40;95.40;;;;;;5037722;28;20116;-69
2023/05/04 02:27:20;;;;;;;10.38;5.65;;;7.40;95.50;;;;;;5037549;28;20052;-69
2023/05/04 02:29:46;;;;;;;11.73;5.40;;;7.30;95.50;;;;;;5037586;28;20044;-69
2023/05/04 02:32:12;;;;;;;11.32;5.22;;;7.30;95.60;;;;;;5037559;28;20052;-69
2023/05/04 02:34:37;;;;;;;11.73;5.88;;;7.30;95.70;;;;;;5037787;28;20124;-69
2023/05/04 02:37:03;;;;;;;12.80;5.60;;;7.30;95.80;;;;;;5037952;28;20076;-69
2023/05/04 02:39:28;;;;;;;12.10;6.05;;;7.30;95.80;;;;;;5037500;28;20076;-69
2023/05/04 02:41:54;;;;;;;10.85;5.55;;;7.30;95.80;;;;;;5055458;28;20516;-69
2023/05/04 02:44:19;;;;;;;8.48;5.63;;;7.30;95.90;;;;;;5037318;28;20511;-69
2023/05/04 02:46:45;;;;;;;10.35;5.65;;;7.30;95.90;;;;;;5037141;28;20056;-69
2023/05/04 02:49:11;;;;;;;10.82;5.72;;;7.30;95.90;;;;;;5037390;28;20137;-70
2023/05/04 02:51:36;;;;;;;12.50;6.03;;;7.30;96.00;;;;;;5020701;28;20417;-69
2023/05/04 02:54:02;;;;;;;10.73;5.55;;;7.30;96.10;;;;;;5020719;28;20037;-69
2023/05/04 02:56:27;;;;;;;16.63;6.45;;;7.30;96.10;;;;;;5037143;28;20044;-69
2023/05/04 02:58:53;;;;;;;11.15;5.53;;;7.30;96.20;;;;;;5036986;28;20045;-69
2023/05/04 03:01:19;;;;;;;10.52;5.35;;;7.30;96.30;;;;;;5054843;28;20037;-69
2023/05/04 03:03:44;;;;;;;12.82;5.35;;;7.30;96.30;;;;;;5037264;28;20134;-69
2023/05/04 03:06:10;;;;;;;11.68;5.78;;;7.30;96.40;;;;;;5036919;28;20493;-69
2023/05/04 03:08:36;;;;;;;9.07;5.63;;;7.30;96.40;;;;;;5037027;28;20124;-69
2023/05/04 03:11:01;;;;;;;9.88;5.57;;;7.30;96.60;;;;;;5036829;28;20409;-69
2023/05/04 03:13:27;;;;;;;11.60;5.80;;;7.30;96.50;;;;;;5036774;28;20075;-69
2023/05/04 03:15:52;;;;;;;12.05;5.65;;;7.30;96.60;;;;;;5036698;28;20124;-69
2023/05/04 03:18:18;;;;;;;9.93;5.88;;;7.30;96.60;;;;;;5054434;28;20041;-69
2023/05/04 03:20:44;;;;;;;11.02;5.85;;;7.30;96.70;;;;;;5036626;28;20405;-69
2023/05/04 03:23:10;;;;;;;10.45;5.80;;;7.30;96.70;;;;;;5036566;28;20075;-68
2023/05/04 03:25:35;;;;;;;13.13;5.78;;;7.30;96.60;;;;;;5036530;28;20044;-68
2023/05/04 03:28:01;;;;;;;11.18;5.38;;;7.30;96.50;;;;;;5036509;28;20112;-68
2023/05/04 03:30:26;;;;;;;13.45;6.28;;;7.30;96.60;;;;;;5036793;28;20124;-69
2023/05/04 03:32:52;;;;;;;8.77;5.15;;;7.30;96.70;;;;;;5035584;28;20513;-69
2023/05/04 03:35:18;;;;;;;10.80;5.70;;;7.30;96.70;;;;;;5036613;28;20037;-69
2023/05/04 03:37:43;;;;;;;8.80;5.93;;;7.30;96.70;;;;;;5036271;28;20514;-69
2023/05/04 03:40:09;;;;;;;11.77;5.70;;;7.30;96.70;;;;;;5036269;28;20080;-69
2023/05/04 03:42:36;;;;;;;15.07;6.53;;;7.30;96.90;;;;;;5036395;28;20045;-69
2023/05/04 03:45:02;;;;;;;12.88;6.82;;;7.30;96.90;;;;;;5036216;28;20041;-69
2023/05/04 03:47:28;;;;;;;9.77;5.90;;;7.30;96.90;;;;;;5036027;28;20037;-69
2023/05/04 03:49:54;;;;;;;12.32;5.90;;;7.30;96.90;;;;;;5036068;28;20047;-69
2023/05/04 03:52:19;;;;;;;10.60;6.30;;;7.30;96.90;;;;;;5036008;28;20086;-69
2023/05/04 03:54:45;;;;;;;12.43;6.45;;;7.30;96.90;;;;;;5036008;28;20064;-69
2023/05/04 03:57:10;;;;;;;13.63;6.97;;;7.30;96.90;;;;;;5036114;28;20122;-69
2023/05/04 03:59:36;;;;;;;10.25;6.35;;;7.30;97.00;;;;;;5035826;28;20489;-69
2023/05/04 04:02:01;;;;;;;11.10;7.25;;;7.30;97.10;;;;;;5036145;28;20047;-69
2023/05/04 04:04:27;;;;;;;12.10;7.05;;;7.30;97.00;;;;;;5035824;28;20500;-69
2023/05/04 04:06:52;;;;;;;11.25;6.25;;;7.30;97.10;;;;;;5036031;28;20037;-69
2023/05/04 04:09:18;;;;;;;11.10;7.13;;;7.30;97.10;;;;;;5035724;28;20536;-69
2023/05/04 04:11:44;;;;;;;10.02;6.43;;;7.30;97.10;;;;;;5035998;28;20074;-69
2023/05/04 04:14:10;;;;;;;12.80;6.60;;;7.30;97.20;;;;;;5035643;28;20037;-69
2023/05/04 04:16:36;;;;;;;10.10;6.28;;;7.30;97.20;;;;;;5019165;28;20504;-69
2023/05/04 04:19:01;;;;;;;10.95;6.85;;;7.30;97.60;;;;;;5035461;28;20041;-69
2023/05/04 04:21:27;;;;;;;12.32;7.53;;;7.30;97.30;;;;;;5035560;28;20037;-69
2023/05/04 04:23:53;;;;;;;11.32;6.72;;;7.30;97.30;;;;;;5035494;28;20136;-69
2023/05/04 04:26:20;;;;;;;12.90;7.70;;;7.30;97.50;;;;;;5035450;28;20171;-69
2023/05/04 04:28:49;;;;;;;9.77;6.70;;;7.30;97.40;;;;;;5035619;28;20155;-69
2023/05/04 04:31:19;;;;;;;13.43;7.15;;;7.30;97.50;;;;;;5035417;28;20489;-69
2023/05/04 04:33:46;;;;;;;11.68;6.75;;;7.30;97.50;;;;;;5036484;28;20433;-69
2023/05/04 04:36:15;;;;;;;13.60;7.32;;;7.30;97.70;;;;;;5035602;28;20048;-69
2023/05/04 04:38:41;;;;;;;13.57;7.07;;;7.20;97.70;;;;;;5035141;28;20602;-69
2023/05/04 04:41:07;;;;;;;11.20;6.85;;;7.30;97.90;;;;;;5035231;28;20413;-69
2023/05/04 04:43:33;;;;;;;15.25;7.88;;;7.30;97.80;;;;;;5035057;28;20033;-69
2023/05/04 04:45:59;;;;;;;10.85;6.93;;;7.30;97.90;;;;;;5035227;28;20115;-69
2023/05/04 04:48:24;;;;;;;14.15;7.30;;;7.20;98.00;;;;;;5035042;28;20033;-69
2023/05/04 04:50:51;;;;;;;11.05;7.35;;;7.30;98.00;;;;;;5035154;28;20041;-69
2023/05/04 04:53:17;;;;;;;15.05;7.75;;;7.30;98.00;;;;;;5035161;28;20040;-69
2023/05/04 04:55:43;;;;;;;12.93;7.10;;;7.30;98.00;;;;;;5035052;28;20040;-69
2023/05/04 04:58:09;;;;;;;12.38;6.95;;;7.30;98.10;;;;;;5035041;28;20124;-69
2023/05/04 05:00:35;;;;;;;12.32;7.60;;;7.40;98.20;;;;;;5035058;28;20120;-69
2023/05/04 05:03:01;;;;;;;13.68;7.65;;;7.40;98.10;;;;;;5035041;28;20041;-69
2023/05/04 05:05:28;;;;;;;13.10;6.80;;;7.40;98.20;;;;;;5034975;28;20041;-69
2023/05/04 05:07:53;;;;;;;12.82;6.70;;;7.40;98.30;;;;;;5035026;28;20041;-69
2023/05/04 05:10:22;;;;;;;12.13;6.80;;;7.50;98.30;;;;;;5035159;28;20098;-69
2023/05/04 05:12:50;;;;;;;13.25;8.05;;;7.50;98.20;;;;;;5035132;28;20504;-69
2023/05/04 05:15:16;;;;;;;16.77;7.82;;;7.50;98.30;;;;;;5034933;28;20120;-69
2023/05/04 05:17:42;;;;;;;14.05;7.03;;;7.60;98.20;;;;;;5034765;28;20151;-69
2023/05/04 05:20:10;;;;;;;12.18;7.20;;;7.50;98.50;;;;;;5034884;28;20070;-69
2023/05/04 05:22:40;;;;;;;12.85;7.65;;;7.60;98.20;;;;;;5034852;28;20490;-69
2023/05/04 05:25:06;;;;;;;14.65;7.68;;;7.60;98.20;;;;;;5034869;28;20033;-69
2023/05/04 05:27:33;;;;;;;14.30;7.47;;;7.60;98.30;;;;;;5034740;28;20056;-69
2023/05/04 05:30:01;;;;;;;15.05;8.05;;;7.60;98.40;;;;;;5034810;28;20053;-69
2023/05/04 05:32:27;;;;;;;13.13;7.55;;;7.70;98.40;;;;;;5034755;28;20444;-69
2023/05/04 05:34:53;;;;;;;13.98;7.40;;;7.80;98.40;;;;;;5034892;28;20052;-69
2023/05/04 05:37:19;;;;;;;12.75;7.65;;;7.80;98.40;;;;;;5052731;28;20033;-69
2023/05/04 05:39:44;;;;;;;12.27;7.53;;;7.80;98.30;;;;;;5034731;28;20040;-69
2023/05/04 05:42:11;;;;;;;11.02;7.40;;;7.80;98.10;;;;;;5053120;28;20538;-69
2023/05/04 05:44:37;;;;;;;11.90;7.82;;;7.90;98.20;;;;;;5034666;28;20045;-70
2023/05/04 05:47:03;;;;;;;14.52;7.40;;;7.90;98.30;;;;;;5034525;28;20083;-70
2023/05/04 05:49:29;;;;;;;14.02;7.80;;;7.90;98.30;;;;;;5034631;28;20128;-70
2023/05/04 05:51:55;;;;;;;12.05;9.07;;;7.90;98.10;;;;;;5034596;28;20053;-70
2023/05/04 05:54:21;;;;;;;13.20;7.50;;;8.00;98.20;;;;;;5034861;28;20044;-70
2023/05/04 05:56:48;;;;;;;13.77;8.05;;;8.00;98.10;;;;;;5038369;28;20082;-70
2023/05/04 05:59:16;;;;;;;12.88;7.55;;;8.10;98.00;;;;;;5038222;28;20068;-70
2023/05/04 06:01:42;;;;;;;11.40;7.40;;;8.10;98.00;;;;;;5038223;28;20664;-70
2023/05/04 06:04:08;;;;;;;11.38;7.55;;;8.20;98.20;;;;;;5038079;28;20123;-70
2023/05/04 06:06:34;;;;;;;14.63;7.35;;;8.20;97.80;;;;;;5038121;28;20037;-70
2023/05/04 06:08:59;;;;;;;13.45;8.30;;;8.20;97.80;;;;;;5037943;28;20040;-70
2023/05/04 06:11:26;;;;;;;14.98;8.05;;;8.30;97.80;;;;;;5037927;28;20113;-70
2023/05/04 06:13:52;;;;;;;14.45;8.07;;;8.30;97.80;;;;;;5037925;28;20041;-70
2023/05/04 06:16:18;;;;;;;11.30;7.20;;;8.40;97.60;;;;;;5037904;28;20037;-70
2023/05/04 06:18:43;;;;;;;15.93;7.82;;;8.50;97.60;;;;;;5037643;28;20094;-70
2023/05/04 06:21:09;;;;;;;12.90;7.75;;;8.50;97.40;;;;;;5038042;28;20041;-70
2023/05/04 06:23:36;;;;;;;12.57;7.57;;;8.60;97.30;;;;;;5055528;28;20494;-70
2023/05/04 06:26:04;;;;;;;12.95;7.35;;;8.70;97.20;;;;;;5055555;28;20060;-70
2023/05/04 06:28:30;;;;;;;11.40;7.18;;;8.70;97.20;;;;;;5037592;28;20045;-71
2023/05/04 06:30:56;;;;;;;13.35;6.82;;;8.70;97.10;;;;;;5037866;28;20108;-71
2023/05/04 06:33:22;;;;;;;11.40;7.30;;;8.80;97.00;;;;;;5055708;28;20389;-70
2023/05/04 06:35:47;;;;;;;16.45;8.20;;;8.90;96.80;;;;;;5055473;28;20490;-69
2023/05/04 06:38:13;;;;;;;10.35;7.45;;;9.00;96.70;;;;;;5037463;28;20497;-69
2023/05/04 06:40:38;;;;;;;10.25;7.07;;;9.00;96.40;;;;;;5055750;28;20045;-68
2023/05/04 06:43:04;;;;;;;12.80;7.47;;;9.10;96.40;;;;;;5037644;28;20047;-68
2023/05/04 06:45:32;;;;;;;11.98;7.43;;;9.20;96.10;;;;;;5037349;28;20076;-68
2023/05/04 06:47:58;;;;;;;12.40;7.30;;;9.20;96.10;;;;;;5037375;28;20140;-68
2023/05/04 06:50:23;;;;;;;10.40;7.35;;;9.40;96.10;;;;;;5037601;28;20545;-68
2023/05/04 06:52:49;;;;;;;13.13;7.53;;;9.50;95.90;;;;;;5037186;28;20385;-69
2023/05/04 06:55:15;;;;;;;11.45;6.75;;;9.60;95.80;;;;;;5037166;28;20040;-68
2023/05/04 06:57:40;;;;;;;10.10;7.20;;;9.70;95.70;;;;;;5037078;28;20056;-68
2023/05/04 07:00:08;;;;;;;13.73;7.55;;;9.80;95.40;;;;;;5037131;28;20127;-68
2023/05/04 07:02:34;;;;;;;12.73;7.20;;;9.80;95.20;;;;;;5037027;28;20033;-68
2023/05/04 07:05:01;;;;;;;12.25;7.63;;;9.80;95.10;;;;;;5036975;28;20079;-69
2023/05/04 07:07:26;;;;;;;12.38;7.13;;;9.90;95.10;;;;;;5035633;28;20414;-68
2023/05/04 07:09:52;;;;;;;10.90;6.55;;;10.00;95.00;;;;;;5036844;28;20047;-68
2023/05/04 07:12:17;;;;;;;14.68;6.82;;;10.20;94.90;;;;;;5036840;28;20060;-68
2023/05/04 07:14:43;;;;;;;12.50;6.85;;;10.30;94.80;;;;;;5037038;28;20044;-69
2023/05/04 07:17:09;;;;;;;10.88;6.65;;;10.30;94.60;;;;;;5036656;28;20524;-69
2023/05/04 07:19:35;;;;;;;11.98;6.80;;;10.40;94.40;;;;;;5036468;28;20055;-68
2023/05/04 07:22:01;;;;;;;14.65;7.25;;;10.50;94.10;;;;;;5036597;28;20486;-68
2023/05/04 07:24:30;;;;;;;13.00;6.32;;;10.60;93.80;;;;;;5036930;28;20043;-70
2023/05/04 07:26:55;;;;;;;11.55;6.97;;;10.70;93.60;;;;;;5036725;28;20083;-69
2023/05/04 07:29:21;;;;;;;15.68;6.60;;;10.80;93.60;;;;;;5054319;28;20044;-69
2023/05/04 07:31:47;;;;;;;16.25;7.53;;;10.80;93.30;;;;;;5036441;28;20049;-69
2023/05/04 07:34:13;;;;;;;11.43;6.72;;;10.90;93.20;;;;;;5036671;28;20037;-70
2023/05/04 07:36:38;;;;;;;9.68;6.25;;;11.00;93.10;;;;;;5036373;28;20563;-70
2023/05/04 07:39:04;;;;;;;9.27;6.38;;;11.10;92.80;;;;;;5054341;28;20037;-70
2023/05/04 07:41:29;;;;;;;12.45;6.85;;;11.20;92.70;;;;;;5036477;28;20511;-70
2023/05/04 07:43:55;;;;;;;11.65;6.07;;;11.30;92.80;;;;;;5036495;28;20040;-70
2023/05/04 07:46:21;;;;;;;9.80;5.85;;;11.40;92.60;;;;;;5036188;28;20091;-70
2023/05/04 07:48:48;;;;;;;12.63;6.22;;;11.50;92.20;;;;;;5036148;28;20127;-70
2023/05/04 07:51:15;;;;;;;10.75;6.05;;;11.60;92.10;;;;;;5036307;28;20106;-70
2023/05/04 07:53:42;;;;;;;10.88;5.40;;;11.70;92.10;;;;;;5035907;28;20048;-70
2023/05/04 07:56:11;;;;;;;10.38;5.30;;;11.80;91.20;;;;;;5019726;28;20049;-70
2023/05/04 07:58:37;;;;;;;11.63;5.93;;;11.90;90.90;;;;;;5053684;28;20090;-70
2023/05/04 08:01:03;;;;;;;11.48;5.70;;;12.00;90.50;;;;;;5036054;28;20125;-70
2023/05/04 08:03:30;;;;;;;10.75;5.80;;;12.10;90.10;;;;;;5035852;28;20522;-70
2023/05/04 08:05:56;;;;;;;11.65;5.65;;;12.30;89.50;;;;;;5036344;28;20159;-70
2023/05/04 08:08:22;;;;;;;10.63;5.30;;;12.40;88.90;;;;;;5035699;28;20111;-70
2023/05/04 08:10:47;;;;;;;12.95;5.40;;;12.50;88.40;;;;;;5035788;28;20040;-70
2023/05/04 08:13:13;;;;;;;7.53;5.03;;;12.70;88.00;;;;;;5035954;28;20041;-70
2023/05/04 08:15:38;;;;;;;8.00;5.10;;;12.80;87.10;;;;;;5035938;28;20043;-70
2023/05/04 08:18:05;;;;;;;10.07;5.57;;;13.00;86.60;;;;;;5035186;28;20441;-70
2023/05/04 08:20:31;;;;;;;10.48;5.20;;;13.10;85.80;;;;;;5035489;28;20041;-69
2023/05/04 08:22:57;;;;;;;8.68;5.50;;;13.20;85.20;;;;;;5035799;28;20052;-70
2023/05/04 08:25:22;;;;;;;9.55;4.57;;;13.30;84.60;;;;;;5035516;28;20083;-69
2023/05/04 08:27:48;;;;;;;7.05;4.65;;;13.40;83.80;;;;;;5035628;28;20037;-70
2023/05/04 08:30:14;;;;;;;9.05;5.03;;;13.50;83.10;;;;;;5035408;28;20437;-70
2023/05/04 08:32:40;;;;;;;9.77;4.63;;;13.60;83.10;;;;;;5035100;28;20060;-70
2023/05/04 08:35:05;;;;;;;12.52;5.38;;;13.80;82.70;;;;;;5035481;28;20048;-69
2023/05/04 08:37:31;;;;;;;11.40;5.18;;;13.90;81.70;;;;;;5035318;28;20079;-69
2023/05/04 08:39:57;;;;;;;9.48;4.93;;;14.10;81.20;;;;;;5053054;28;20052;-70
2023/05/04 08:42:31;;;;;;;10.57;4.43;;;14.20;80.70;;;;;;5035203;28;20037;-68
2023/05/04 08:44:57;;;;;;;9.32;4.45;;;14.40;80.60;;;;;;5035275;28;20429;-69
2023/05/04 08:47:24;;;;;;;9.48;4.75;;;14.50;79.70;;;;;;5034989;28;20041;-69
2023/05/04 08:49:51;;;;;;;11.32;4.95;;;14.50;79.50;;;;;;5035212;28;20515;-69
2023/05/04 08:52:18;;;;;;;11.15;4.63;;;14.70;78.40;;;;;;5035396;28;20107;-69
2023/05/04 08:54:45;;;;;;;8.60;4.75;;;14.80;78.10;;;;;;5035397;28;20048;-69
2023/05/04 08:57:11;;;;;;;10.65;4.85;;;14.90;77.30;;;;;;5034993;28;20493;-69
2023/05/04 08:59:37;;;;;;;6.75;4.75;;;15.00;77.10;;;;;;5034997;28;20045;-69
2023/05/04 09:02:03;;;;;;;8.10;4.18;;;15.20;76.10;;;;;;5035061;28;20044;-69
2023/05/04 09:04:29;;;;;;;10.05;4.30;;;15.20;75.60;;;;;;5035051;28;20049;-69
2023/05/04 09:06:56;;;;;;;11.77;4.80;;;15.30;75.40;;;;;;5018581;28;20128;-69
2023/05/04 09:09:26;;;;;;;10.30;4.45;;;15.50;75.60;;;;;;5034943;28;20049;-69
2023/05/04 09:11:52;;;;;;;10.23;4.40;;;15.60;74.30;;;;;;5034907;28;20045;-69
2023/05/04 09:14:17;;;;;;;13.60;4.75;;;15.60;73.90;;;;;;5034996;28;20047;-69
2023/05/04 09:16:43;;;;;;;11.98;4.28;;;15.80;73.70;;;;;;5052966;28;20048;-69
2023/05/04 09:19:19;;;;;;;8.43;4.65;;;16.00;73.10;;;;;;5034820;28;20045;-69
2023/05/04 09:21:46;;;;;;;10.82;4.78;;;16.20;72.30;;;;;;5034870;28;20498;-69
2023/05/04 09:24:12;;;;;;;10.80;4.50;;;16.40;72.30;;;;;;5034812;28;20120;-70
2023/05/04 09:26:38;;;;;;;8.15;3.97;;;16.60;71.80;;;;;;5035076;28;20124;-70
2023/05/04 09:29:14;;;;;;;8.23;3.53;;;16.80;70.40;;;;;;5035046;28;20551;-70
2023/05/04 09:31:46;;;;;;;10.05;4.25;;;16.90;70.50;;;;;;5056246;28;20505;-70
2023/05/04 09:34:12;;;;;;;10.27;4.30;;;17.00;69.20;;;;;;5022154;28;20037;-70
2023/05/04 09:36:38;;;;;;;9.32;4.07;;;17.00;69.00;;;;;;5038916;28;20041;-70
2023/05/04 09:39:14;;;;;;;27.88;4.90;;;17.10;68.60;;;;;;5038435;28;20409;-70
2023/05/04 09:41:40;;;;;;;7.63;3.92;;;17.30;67.10;;;;;;5038526;28;20056;-70
2023/05/04 09:44:23;;;;;;;10.30;3.30;;;17.40;67.10;;;;;;5056345;28;20045;-70
2023/05/04 09:46:59;;;;;;;7.43;3.33;;;17.60;66.40;;;;;;5038251;28;20116;-70
2023/05/04 09:49:35;;;;;;;5.65;3.35;;;17.80;64.70;;;;;;5038636;28;20037;-70
2023/05/04 09:52:03;;;;;;;9.45;3.90;;;17.90;64.60;;;;;;5038440;28;20116;-70
2023/05/04 09:54:34;;;;;;;7.43;3.65;;;18.00;64.90;;;;;;5038263;28;20045;-70
2023/05/04 09:57:22;;;;;;;10.63;3.80;;;18.00;64.30;;;;;;5038458;28;20053;-70
2023/05/04 09:59:48;;;;;;;8.50;3.58;;;18.10;62.00;;;;;;5038354;28;20052;-70
2023/05/04 10:02:15;;;;;;;9.75;3.70;;;18.10;63.50;;;;;;5038399;28;20095;-70
2023/05/04 10:04:42;;;;;;;9.88;3.63;;;18.30;63.30;;;;;;5056199;28;20072;-70
2023/05/04 10:07:08;;;;;;;6.65;3.70;;;18.40;63.00;;;;;;5038232;28;20410;-70
2023/05/04 10:09:34;;;;;;;8.85;3.72;;;18.60;62.60;;;;;;5037943;28;20049;-70
2023/05/04 10:12:01;;;;;;;10.50;3.70;;;18.80;62.20;;;;;;5038214;28;20040;-70
2023/05/04 10:14:32;;;;;;;11.00;3.55;;;18.90;61.00;;;;;;5037974;28;20040;-70
2023/05/04 10:17:31;;;;;;;8.43;3.72;;;19.00;61.00;;;;;;5037924;28;20053;-69
2023/05/04 10:19:57;;;;;;;7.78;3.20;;;19.20;60.30;;;;;;5037730;28;20056;-71
2023/05/04 10:22:50;;;;;;;8.45;3.95;;;19.20;61.10;;;;;;5037746;28;20044;-72
2023/05/04 10:25:30;;;;;;;11.20;4.50;;;19.20;60.80;;;;;;5037801;28;20044;-71
2023/05/04 10:28:18;;;;;;;7.85;3.70;;;19.30;60.40;;;;;;5037928;28;20106;-71
2023/05/04 10:30:44;;;;;;;6.35;3.38;;;19.40;58.80;;;;;;5021172;28;20052;-71
2023/05/04 10:33:12;;;;;;;7.28;3.88;;;19.50;59.20;;;;;;5037825;28;20041;-71
2023/05/04 10:35:52;;;;;;;7.10;3.70;;;19.60;59.20;;;;;;5037497;28;20516;-71
2023/05/04 10:38:18;;;;;;;10.52;3.50;;;19.80;59.00;;;;;;5037682;28;20044;-71
2023/05/04 10:40:47;;;;;;;7.80;3.55;;;19.90;59.30;;;;;;5037027;28;20493;-71
2023/05/04 10:43:22;;;;;;;6.85;2.65;;;19.90;58.40;;;;;;5037364;28;20098;-73
2023/05/04 10:45:48;;;;;;;7.22;3.95;;;19.90;56.90;;;;;;5037371;28;20119;-73
2023/05/04 10:48:13;;;;;;;5.90;3.13;;;19.90;57.60;;;;;;5037258;28;20116;-73
2023/05/04 10:50:43;;;;;;;10.25;3.55;;;20.00;56.90;;;;;;5037519;28;20049;-73
2023/05/04 10:53:09;;;;;;;7.03;3.15;;;20.20;56.70;;;;;;5037469;28;20045;-73
2023/05/04 10:55:40;;;;;;;9.20;3.40;;;20.30;56.70;;;;;;5037165;28;20143;-73
2023/05/04 10:58:06;;;;;;;9.38;4.05;;;20.30;56.00;;;;;;5037327;28;20044;-73
2023/05/04 11:00:36;;;;;;;7.15;3.40;;;20.40;56.70;;;;;;5037040;28;20431;-73
2023/05/04 11:03:03;;;;;;;7.88;3.08;;;20.40;55.70;;;;;;5037259;28;20062;-72
2023/05/04 11:05:53;;;;;;;10.30;3.20;;;20.50;55.60;;;;;;5036954;28;20116;-72
2023/05/04 11:08:25;;;;;;;8.43;3.58;;;20.80;55.40;;;;;;5036836;28;20049;-72
2023/05/04 11:11:01;;;;;;;8.63;3.38;;;21.00;55.90;;;;;;5037100;28;20539;-72
2023/05/04 11:13:30;;;;;;;10.02;3.20;;;21.30;55.50;;;;;;5037084;28;20040;-72
2023/05/04 11:15:56;;;;;;;9.30;3.17;;;21.40;54.40;;;;;;5036745;28;20052;-72
2023/05/04 11:18:30;;;;;;;7.95;3.45;;;21.40;54.30;;;;;;5036691;28;20120;-72
2023/05/04 11:20:57;;;;;;;7.53;3.42;;;21.40;53.90;;;;;;5054570;28;20132;-72
2023/05/04 11:23:23;;;;;;;7.68;3.35;;;21.20;53.90;;;;;;5036669;28;20513;-73
2023/05/04 11:25:49;;;;;;;10.20;3.30;;;21.10;53.50;;;;;;5054438;28;20033;-73
2023/05/04 11:28:15;;;;;;;8.30;3.30;;;21.10;53.60;;;;;;5036744;28;20040;-73
2023/05/04 11:30:42;;;;;;;8.55;2.90;;;21.10;53.40;;;;;;5036450;28;20560;-73
2023/05/04 11:33:12;;;;;;;6.45;3.53;;;21.20;53.10;;;;;;5019957;28;20045;-73
2023/05/04 11:35:39;;;;;;;9.40;3.65;;;21.30;53.50;;;;;;5036362;28;20047;-72
2023/05/04 11:38:06;;;;;;;10.55;3.13;;;21.40;52.90;;;;;;5036563;28;20041;-72
2023/05/04 11:40:32;;;;;;;8.23;2.88;;;21.50;52.50;;;;;;5019718;28;20474;-71
2023/05/04 11:42:59;;;;;;;8.38;3.03;;;21.70;51.80;;;;;;5036560;28;20041;-72
2023/05/04 11:45:33;;;;;;;7.80;3.20;;;21.70;51.70;;;;;;5036163;28;20112;-72
2023/05/04 11:47:59;;;;;;;11.10;3.42;;;22.00;53.60;;;;;;5035999;28;20037;-72
2023/05/04 11:50:26;;;;;;;8.75;2.92;;;22.10;51.20;;;;;;5036438;28;20115;-72
2023/05/04 11:53:07;;;;;;;8.32;2.67;;;22.20;50.50;;;;;;5035638;28;20037;-72
2023/05/04 11:55:34;;;;;;;9.57;2.92;;;22.30;49.10;;;;;;5035978;28;20474;-71
2023/05/04 11:58:07;;;;;;;6.07;2.25;;;22.50;50.40;;;;;;5054038;28;20041;-71
2023/05/04 12:00:42;;;;;;;7.22;2.70;;;22.70;50.20;;;;;;5035954;28;20052;-71
2023/05/04 12:03:30;;;;;;;12.48;2.88;;;23.00;49.00;;;;;;5019963;28;20041;-71
2023/05/04 12:05:57;;;;;;;9.23;3.22;;;23.10;47.80;;;;;;5036142;28;20040;-71
2023/05/04 12:08:26;;;;;;;8.65;2.67;;;23.10;48.60;;;;;;5036148;28;20064;-71
2023/05/04 12:11:20;;;;;;;6.97;2.97;;;23.30;48.00;;;;;;5036010;28;20041;-71
2023/05/04 12:13:48;;;;;;;4.40;2.38;;;23.30;46.70;;;;;;5036039;28;20063;-71
2023/05/04 12:16:15;;;;;;;6.75;2.72;;;23.30;47.80;;;;;;5035626;28;20124;-71
2023/05/04 12:18:44;;;;;;;7.30;3.20;;;23.30;48.00;;;;;;5035467;28;20520;-71
2023/05/04 12:21:20;;;;;;;6.53;2.40;;;23.30;47.50;;;;;;5035653;28;20037;-71
2023/05/04 12:23:46;;;;;;;6.38;2.38;;;23.30;46.80;;;;;;5035806;28;20048;-71
2023/05/04 12:26:13;;;;;;;6.03;2.63;;;23.40;46.40;;;;;;5035505;28;20073;-71
2023/05/04 12:28:40;;;;;;;5.68;2.22;;;23.40;46.40;;;;;;5035679;28;20051;-71
2023/05/04 12:31:05;;;;;;;7.07;2.58;;;23.40;46.70;;;;;;5019361;28;20527;-71
2023/05/04 12:33:31;;;;;;;7.25;2.28;;;23.40;45.40;;;;;;5018988;28;20072;-71
2023/05/04 12:36:00;;;;;;;6.38;1.98;;;23.60;45.80;;;;;;5035388;28;20041;-71
2023/05/04 12:38:27;;;;;;;7.22;2.40;;;23.70;45.80;;;;;;5035288;28;20067;-71
2023/05/04 12:40:53;;;;;;;7.40;2.20;;;23.70;46.40;;;;;;5035235;28;20469;-71
2023/05/04 12:43:21;;;;;;;7.47;2.35;;;23.80;45.40;;;;;;5035329;28;20476;-71
2023/05/04 12:45:49;;;;;;;4.35;2.33;;;23.80;45.00;;;;;;5035313;28;20056;-71
2023/05/04 12:48:15;;;;;;;5.80;2.25;;;23.80;45.20;;;;;;5035101;28;20075;-71